Time;durP1;ratioP1;P1;durP2;ratioP2;P2;SDS_P1;SDS_P2;PMS_P1;PMS_P2;Temp;Humidity;BMP_temperature;BMP_pressure;BME280_temperature;BME280_humidity;BME280_pressure;Samples;Min_cycle;Max_cycle;Signal;HPM_P1;HPM_P2
2022/01/02 00:01:46;;;;;;;10.05;5.00;;;;;;;10.68;81.16;101731.91;5050360;28;20096;-62
2022/01/02 00:04:20;;;;;;;9.77;5.20;;;;;;;10.71;80.96;101732.47;5053816;28;20362;-62
2022/01/02 00:06:48;;;;;;;12.77;5.03;;;;;;;10.70;81.46;101735.28;5043337;28;20393;-62
2022/01/02 00:09:34;;;;;;;7.93;4.82;;;;;;;10.73;81.12;101750.91;5051489;28;20025;-62
2022/01/02 00:12:16;;;;;;;8.38;4.57;;;;;;;10.73;80.97;101742.94;5045748;28;20052;-62
2022/01/02 00:14:46;;;;;;;9.43;4.85;;;;;;;10.71;80.96;101758.19;5043279;28;20040;-62
2022/01/02 00:17:12;;;;;;;8.30;4.50;;;;;;;10.73;81.31;101766.81;5041196;28;20550;-62
2022/01/02 00:19:45;;;;;;;13.02;5.00;;;;;;;10.78;80.74;101764.59;5046858;28;20037;-63
2022/01/02 00:22:16;;;;;;;9.00;4.80;;;;;;;10.73;80.59;101754.41;5055348;28;20033;-62
2022/01/02 00:24:43;;;;;;;8.38;4.90;;;;;;;10.80;81.03;101749.34;5047507;28;20477;-62
2022/01/02 00:27:10;;;;;;;9.48;4.72;;;;;;;10.78;80.74;101753.97;5052756;28;20029;-63
2022/01/02 00:29:38;;;;;;;11.10;4.53;;;;;;;10.76;80.56;101743.50;5049931;28;20037;-63
2022/01/02 00:32:06;;;;;;;10.10;4.70;;;;;;;10.76;81.08;101732.88;5049391;28;20025;-63
2022/01/02 00:34:34;;;;;;;10.02;4.50;;;;;;;10.77;82.05;101731.09;5052795;28;20048;-63
2022/01/02 00:36:59;;;;;;;9.73;4.45;;;;;;;10.81;81.14;101735.13;5044154;28;20084;-62
2022/01/02 00:39:24;;;;;;;8.93;4.55;;;;;;;10.78;82.37;101730.09;5049786;28;20057;-63
2022/01/02 00:41:56;;;;;;;8.98;4.47;;;;;;;10.81;82.66;101739.59;5057295;28;20024;-63
2022/01/02 00:44:35;;;;;;;10.45;4.70;;;;;;;10.79;83.00;101734.44;5046490;28;20025;-62
2022/01/02 00:47:36;;;;;;;11.25;4.70;;;;;;;10.78;83.28;101746.03;5049027;28;20068;-62
2022/01/02 00:50:06;;;;;;;10.93;4.65;;;;;;;10.72;83.92;101741.28;5045388;28;20638;-62
2022/01/02 00:52:35;;;;;;;13.27;4.70;;;;;;;10.68;85.19;101745.19;5053975;28;20478;-62
2022/01/02 00:55:03;;;;;;;13.27;4.70;;;;;;;10.67;85.40;101740.84;5047637;28;20033;-62
2022/01/02 00:57:33;;;;;;;10.38;4.97;;;;;;;10.59;85.56;101723.84;5053620;28;20040;-62
2022/01/02 01:00:05;;;;;;;9.02;4.47;;;;;;;10.63;85.81;101719.94;5042538;28;20064;-63
2022/01/02 01:02:39;;;;;;;8.82;4.78;;;;;;;10.60;86.89;101720.19;5049751;28;20059;-62
2022/01/02 01:05:06;;;;;;;10.30;4.90;;;;;;;10.56;87.24;101710.84;5049004;28;20089;-62
2022/01/02 01:07:33;;;;;;;11.93;5.05;;;;;;;10.52;86.96;101712.13;5052108;28;20090;-62
2022/01/02 01:09:59;;;;;;;13.38;4.97;;;;;;;10.48;87.26;101713.34;5047041;28;20029;-62
2022/01/02 01:12:25;;;;;;;14.77;5.05;;;;;;;10.47;88.47;101703.72;5057635;28;20673;-62
2022/01/02 01:14:51;;;;;;;11.57;5.35;;;;;;;10.43;88.47;101702.31;5047690;28;20026;-62
2022/01/02 01:17:16;;;;;;;10.63;5.18;;;;;;;10.39;89.55;101709.69;5044946;28;20048;-62
2022/01/02 01:19:42;;;;;;;10.05;5.25;;;;;;;10.35;89.34;101695.03;5048241;28;20033;-62
2022/01/02 01:22:08;;;;;;;10.68;5.60;;;;;;;10.32;89.38;101690.84;5055156;28;20360;-62
2022/01/02 01:24:35;;;;;;;13.57;5.82;;;;;;;10.31;89.52;101699.78;5056202;28;20112;-62
2022/01/02 01:27:03;;;;;;;10.10;5.15;;;;;;;10.30;89.68;101687.50;5046300;28;20111;-62
2022/01/02 01:29:34;;;;;;;12.60;5.65;;;;;;;10.27;90.32;101687.75;5044815;28;20024;-62
2022/01/02 01:31:59;;;;;;;15.27;5.30;;;;;;;10.25;90.16;101684.41;5047534;28;20495;-62
2022/01/02 01:34:24;;;;;;;9.68;4.93;;;;;;;10.25;90.24;101679.13;5052446;28;20033;-62
2022/01/02 01:36:49;;;;;;;14.98;5.43;;;;;;;10.23;90.19;101675.78;5049119;28;20368;-62
2022/01/02 01:39:15;;;;;;;11.90;5.75;;;;;;;10.19;91.16;101664.63;5049396;28;20037;-62
2022/01/02 01:41:40;;;;;;;12.02;5.43;;;;;;;10.17;91.10;101671.84;5046526;28;20496;-62
2022/01/02 01:44:26;;;;;;;11.88;5.78;;;;;;;10.15;91.96;101668.50;5048808;28;20025;-62
2022/01/02 01:46:55;;;;;;;12.95;5.43;;;;;;;10.17;91.12;101671.03;5050564;28;20409;-62
2022/01/02 01:49:24;;;;;;;15.65;5.63;;;;;;;10.16;90.90;101669.38;5050042;28;20399;-62
2022/01/02 01:51:49;;;;;;;10.45;5.03;;;;;;;10.13;90.98;101653.72;5053619;28;20112;-62
2022/01/02 01:54:15;;;;;;;12.25;5.28;;;;;;;10.15;91.64;101659.72;5056465;28;20434;-62
2022/01/02 01:56:41;;;;;;;10.73;5.10;;;;;;;10.17;91.98;101660.44;5051343;28;20032;-62
2022/01/02 01:59:06;;;;;;;11.80;5.30;;;;;;;10.16;91.95;101643.69;5052180;28;20029;-62
2022/01/02 02:01:32;;;;;;;9.43;5.38;;;;;;;10.16;91.74;101640.22;5044578;28;20053;-62
2022/01/02 02:03:58;;;;;;;12.05;5.50;;;;;;;10.15;91.46;101635.84;5052010;28;20029;-62
2022/01/02 02:06:24;;;;;;;12.60;5.60;;;;;;;10.17;91.44;101634.75;5048804;28;20039;-62
2022/01/02 02:08:53;;;;;;;10.13;5.25;;;;;;;10.15;91.62;101625.25;5045359;28;20036;-62
2022/01/02 02:11:20;;;;;;;9.55;4.90;;;;;;;10.14;92.22;101618.28;5043004;28;20490;-62
2022/01/02 02:13:46;;;;;;;11.90;4.85;;;;;;;10.13;91.84;101604.22;5043920;28;20507;-62
2022/01/02 02:16:12;;;;;;;10.80;5.18;;;;;;;10.13;92.32;101611.31;5047075;28;20044;-62
2022/01/02 02:18:37;;;;;;;12.50;4.85;;;;;;;10.12;91.73;101593.75;5045736;28;20028;-62
2022/01/02 02:21:03;;;;;;;13.57;5.10;;;;;;;10.14;92.06;101594.44;5051210;28;20040;-62
2022/01/02 02:23:28;;;;;;;11.98;4.85;;;;;;;10.15;92.06;101604.06;5048889;28;20071;-62
2022/01/02 02:25:53;;;;;;;14.65;5.10;;;;;;;10.14;91.70;101592.63;5051506;28;20052;-62
2022/01/02 02:28:19;;;;;;;11.38;5.05;;;;;;;10.14;92.23;101591.78;5048847;28;20065;-62
2022/01/02 02:30:46;;;;;;;14.13;5.20;;;;;;;10.12;91.66;101583.97;5046856;28;20464;-62
2022/01/02 02:33:12;;;;;;;14.23;5.15;;;;;;;10.15;91.93;101593.44;5047488;28;20079;-63
2022/01/02 02:35:40;;;;;;;18.15;5.30;;;;;;;10.12;91.90;101580.50;5043324;28;20435;-62
2022/01/02 02:38:08;;;;;;;12.65;5.20;;;;;;;10.17;92.15;101596.81;5040674;28;20040;-62
2022/01/02 02:40:35;;;;;;;11.38;5.22;;;;;;;10.18;92.14;101588.75;5048047;28;20032;-62
2022/01/02 02:43:06;;;;;;;13.02;5.20;;;;;;;10.19;92.26;101594.84;5038152;28;20037;-62
2022/01/02 02:51:06;;;;;;;13.18;4.97;;;;;;;10.17;91.69;101565.03;5046388;28;20045;-62
2022/01/02 02:53:40;;;;;;;13.27;5.20;;;;;;;10.17;92.69;101557.88;5046876;28;20025;-62
2022/01/02 02:58:49;;;;;;;13.73;5.32;;;;;;;10.18;92.29;101550.78;5048578;28;20037;-62
2022/01/02 03:01:17;;;;;;;11.70;5.00;;;;;;;10.15;92.34;101545.75;5041675;28;20045;-62
2022/01/02 03:03:43;;;;;;;11.50;5.30;;;;;;;10.21;92.20;101561.09;5047436;28;20044;-62
2022/01/02 03:06:09;;;;;;;16.25;5.63;;;;;;;10.22;91.67;101568.09;5047805;28;20025;-62
2022/01/02 03:08:36;;;;;;;17.92;5.38;;;;;;;10.17;92.15;101549.94;5050905;28;20472;-63
2022/01/02 03:11:03;;;;;;;14.75;5.07;;;;;;;10.26;92.48;101558.84;5043539;28;20087;-62
2022/01/02 03:13:30;;;;;;;11.85;4.93;;;;;;;10.29;92.04;101552.44;5048913;28;20377;-62
2022/01/02 03:15:55;;;;;;;14.95;5.45;;;;;;;10.30;92.73;101546.16;5045999;28;20120;-62
2022/01/02 03:18:21;;;;;;;14.65;5.60;;;;;;;10.30;92.23;101554.94;5048876;28;20395;-62
2022/01/02 03:20:46;;;;;;;13.65;5.50;;;;;;;10.32;91.94;101558.28;5047280;28;20033;-62
2022/01/02 03:23:11;;;;;;;16.50;5.63;;;;;;;10.31;92.51;101556.63;5052457;28;20414;-62
2022/01/02 03:25:37;;;;;;;14.30;5.60;;;;;;;10.33;92.64;101554.69;5050983;28;20029;-63
2022/01/02 03:28:02;;;;;;;18.42;5.72;;;;;;;10.31;92.05;101550.50;5050097;28;20075;-62
2022/01/02 03:30:27;;;;;;;13.23;5.90;;;;;;;10.30;92.91;101544.34;5047067;28;20044;-62
2022/01/02 03:32:53;;;;;;;15.30;6.20;;;;;;;10.31;92.34;101545.19;5046314;28;20495;-62
2022/01/02 03:35:18;;;;;;;13.73;5.70;;;;;;;10.30;92.52;101557.59;5056267;28;20025;-62
2022/01/02 03:37:43;;;;;;;12.55;5.28;;;;;;;10.32;92.27;101568.88;5050601;28;20040;-62
2022/01/02 03:40:10;;;;;;;15.68;5.43;;;;;;;10.30;93.02;101565.56;5039990;28;20068;-62
2022/01/02 03:42:36;;;;;;;18.13;6.00;;;;;;;10.31;92.67;101561.91;5043281;28;20037;-62
2022/01/02 03:45:03;;;;;;;16.08;5.85;;;;;;;10.29;92.32;101558.59;5044066;28;20037;-62
2022/01/02 03:47:28;;;;;;;16.17;5.65;;;;;;;10.28;93.12;101550.75;5045386;28;20025;-62
2022/01/02 03:49:53;;;;;;;16.25;5.93;;;;;;;10.30;93.17;101546.16;5047980;28;20040;-63
2022/01/02 03:52:19;;;;;;;15.45;5.70;;;;;;;10.27;93.33;101539.31;5049600;28;20055;-62
2022/01/02 03:54:45;;;;;;;13.60;5.45;;;;;;;10.25;92.84;101546.59;5045760;28;20113;-62
2022/01/02 03:57:10;;;;;;;15.65;5.30;;;;;;;10.26;93.22;101537.66;5050460;28;20039;-62
2022/01/02 03:59:35;;;;;;;16.48;5.40;;;;;;;10.26;92.91;101537.66;5050418;28;20063;-62
2022/01/02 04:02:01;;;;;;;14.23;5.80;;;;;;;10.25;93.45;101519.25;5046237;28;20170;-62
2022/01/02 04:04:28;;;;;;;16.52;5.80;;;;;;;10.25;93.76;101514.78;5048402;28;20035;-62
2022/01/02 04:06:53;;;;;;;13.40;5.65;;;;;;;10.24;93.71;101513.09;5046738;28;20021;-62
2022/01/02 04:09:18;;;;;;;18.27;5.85;;;;;;;10.25;93.21;101509.47;5046364;28;20740;-63
2022/01/02 04:11:44;;;;;;;15.75;5.60;;;;;;;10.26;92.77;101491.75;5052093;28;20835;-62
2022/01/02 04:14:09;;;;;;;12.63;5.13;;;;;;;10.25;92.96;101498.88;5054120;28;20051;-62
2022/01/02 04:16:34;;;;;;;16.13;5.70;;;;;;;10.27;92.76;101507.50;5050835;28;20460;-63
2022/01/02 04:18:59;;;;;;;15.13;5.38;;;;;;;10.29;92.52;101494.97;5045997;28;20025;-62
2022/01/02 04:21:24;;;;;;;15.32;5.53;;;;;;;10.29;92.53;101502.91;5052587;28;20041;-62
2022/01/02 04:23:50;;;;;;;12.35;5.30;;;;;;;10.31;92.85;101502.78;5062310;28;20063;-63
2022/01/02 04:26:15;;;;;;;14.02;5.40;;;;;;;10.29;92.48;101499.41;5053220;28;20029;-62
2022/01/02 04:28:40;;;;;;;15.40;5.20;;;;;;;10.28;92.73;101503.91;5045400;28;20029;-61
2022/01/02 04:31:06;;;;;;;12.73;5.40;;;;;;;10.29;92.73;101508.22;5046333;28;20036;-62
2022/01/02 04:33:31;;;;;;;15.20;5.65;;;;;;;10.29;92.82;101500.25;5055141;28;20052;-62
2022/01/02 04:35:56;;;;;;;15.43;5.63;;;;;;;10.26;92.54;101495.22;5043781;28;20056;-62
2022/01/02 04:38:22;;;;;;;17.58;4.90;;;;;;;10.26;92.84;101491.75;5050057;28;20040;-62
2022/01/02 04:40:48;;;;;;;11.32;5.05;;;;;;;10.24;93.45;101483.94;5042924;28;20044;-62
2022/01/02 04:43:13;;;;;;;15.05;5.18;;;;;;;10.25;93.91;101477.66;5054830;28;20116;-63
2022/01/02 04:45:39;;;;;;;12.55;5.38;;;;;;;10.20;93.94;101469.31;5050202;28;20108;-62
2022/01/02 04:48:04;;;;;;;17.52;5.93;;;;;;;10.19;93.87;101462.34;5048560;28;20041;-62
2022/01/02 04:50:29;;;;;;;12.02;5.68;;;;;;;10.18;93.15;101456.22;5047962;28;20130;-62
2022/01/02 04:52:55;;;;;;;15.35;5.45;;;;;;;10.16;93.22;101449.38;5053134;28;20033;-62
2022/01/02 04:55:20;;;;;;;15.85;5.68;;;;;;;10.15;93.80;101439.75;5057113;28;20024;-63
2022/01/02 04:57:45;;;;;;;12.88;5.22;;;;;;;10.12;93.72;101435.56;5050750;28;20539;-62
2022/01/02 05:00:11;;;;;;;15.05;5.45;;;;;;;10.11;94.63;101433.91;5046169;28;20024;-62
2022/01/02 05:02:37;;;;;;;13.88;5.47;;;;;;;10.11;94.55;101422.47;5043741;28;20052;-62
2022/01/02 05:05:03;;;;;;;12.57;5.25;;;;;;;10.09;93.63;101396.97;5046506;28;20037;-62
2022/01/02 05:07:28;;;;;;;13.68;4.88;;;;;;;10.07;94.83;101393.59;5046400;28;20053;-62
2022/01/02 05:09:54;;;;;;;13.45;5.22;;;;;;;10.06;94.46;101399.88;5051842;28;20543;-63
2022/01/02 05:12:19;;;;;;;12.88;4.75;;;;;;;10.05;94.88;101397.38;5049843;28;20025;-63
2022/01/02 05:14:44;;;;;;;11.60;4.85;;;;;;;10.05;94.65;101386.78;5038898;28;20029;-63
2022/01/02 05:17:09;;;;;;;12.15;5.07;;;;;;;10.04;94.70;101380.66;5047138;28;20047;-62
2022/01/02 05:19:35;;;;;;;12.90;5.03;;;;;;;10.04;94.86;101388.59;5048412;28;20057;-62
2022/01/02 05:22:00;;;;;;;11.27;4.90;;;;;;;10.04;94.83;101385.97;5052805;28;20460;-63
2022/01/02 05:24:26;;;;;;;12.18;4.85;;;;;;;10.04;94.58;101379.81;5050832;28;20113;-62
2022/01/02 05:26:51;;;;;;;11.38;4.90;;;;;;;10.01;94.60;101380.94;5046879;28;20045;-63
2022/01/02 05:29:17;;;;;;;12.95;4.90;;;;;;;9.99;94.90;101372.31;5044635;28;20029;-62
2022/01/02 05:31:42;;;;;;;13.27;4.95;;;;;;;9.98;94.96;101370.63;5046937;28;20036;-63
2022/01/02 05:34:08;;;;;;;12.13;4.97;;;;;;;9.96;95.22;101361.97;5051867;28;20087;-62
2022/01/02 05:36:33;;;;;;;12.73;5.20;;;;;;;9.95;94.67;101358.50;5049022;28;20439;-62
2022/01/02 05:38:58;;;;;;;13.02;5.25;;;;;;;9.94;95.36;101359.50;5046982;28;20053;-63
2022/01/02 05:41:26;;;;;;;15.77;5.47;;;;;;;9.92;95.39;101357.97;5046036;28;20064;-62
2022/01/02 05:43:51;;;;;;;17.70;5.53;;;;;;;9.90;95.76;101346.66;5052797;28;20052;-63
2022/01/02 05:46:17;;;;;;;12.00;5.68;;;;;;;9.89;95.71;101350.28;5044640;28;20030;-63
2022/01/02 05:48:42;;;;;;;12.75;5.03;;;;;;;9.89;95.29;101340.53;5051289;28;20029;-62
2022/01/02 05:51:07;;;;;;;14.88;5.45;;;;;;;9.87;95.66;101325.78;5053177;28;20028;-62
2022/01/02 05:53:32;;;;;;;14.52;5.50;;;;;;;9.86;95.78;101324.09;5048422;28;20025;-62
2022/01/02 05:55:58;;;;;;;14.77;5.90;;;;;;;9.83;95.80;101315.44;5051957;28;20083;-62
2022/01/02 05:58:23;;;;;;;11.43;5.35;;;;;;;9.80;95.47;101304.31;5049183;28;20459;-62
2022/01/02 06:00:49;;;;;;;11.85;5.38;;;;;;;9.80;94.82;101302.50;5048834;28;20033;-62
2022/01/02 06:03:14;;;;;;;10.85;5.45;;;;;;;9.81;94.94;101296.22;5047739;28;20039;-62
2022/01/02 06:05:39;;;;;;;10.05;5.10;;;;;;;9.80;95.21;101268.06;5052138;28;20025;-63
2022/01/02 06:08:05;;;;;;;12.05;5.10;;;;;;;9.82;94.75;101281.19;5046827;28;20063;-63
2022/01/02 06:10:30;;;;;;;12.77;4.93;;;;;;;9.82;94.67;101281.19;5043184;28;20037;-62
2022/01/02 06:12:55;;;;;;;12.75;5.00;;;;;;;9.81;95.16;101274.19;5049257;28;20052;-62
2022/01/02 06:15:20;;;;;;;12.93;4.90;;;;;;;9.80;95.31;101267.22;5053612;28;20029;-62
2022/01/02 06:17:45;;;;;;;10.57;4.38;;;;;;;9.82;94.73;101255.50;5048194;28;20045;-62
2022/01/02 06:20:11;;;;;;;13.82;4.80;;;;;;;9.81;95.14;101253.84;5043916;28;20358;-63
2022/01/02 06:22:36;;;;;;;11.10;4.38;;;;;;;9.82;93.78;101229.03;5048512;28;20036;-62
2022/01/02 06:25:03;;;;;;;14.43;4.82;;;;;;;9.81;94.00;101222.06;5053649;28;20037;-63
2022/01/02 06:27:28;;;;;;;12.40;4.70;;;;;;;9.80;94.49;101217.75;5048266;28;20036;-63
2022/01/02 06:29:54;;;;;;;10.63;4.72;;;;;;;9.81;94.37;101211.47;5045506;28;20024;-63
2022/01/02 06:32:19;;;;;;;11.20;4.63;;;;;;;9.80;93.77;101193.91;5047205;28;20060;-63
2022/01/02 06:34:46;;;;;;;11.13;4.53;;;;;;;9.81;94.19;101184.97;5051566;28;20465;-63
2022/01/02 06:37:11;;;;;;;12.43;4.72;;;;;;;9.82;94.00;101175.22;5046201;28;20038;-63
2022/01/02 06:39:36;;;;;;;14.70;4.70;;;;;;;9.83;93.38;101168.94;5042370;28;20040;-63
2022/01/02 06:42:02;;;;;;;11.35;4.32;;;;;;;9.80;93.43;101156.84;5049964;28;20024;-62
2022/01/02 06:44:27;;;;;;;13.23;4.55;;;;;;;9.78;93.51;101153.47;5049472;28;20068;-63
2022/01/02 06:46:52;;;;;;;13.15;4.60;;;;;;;9.79;92.80;101135.78;5048912;28;20037;-63
2022/01/02 06:49:18;;;;;;;8.70;4.20;;;;;;;9.77;92.84;101127.16;5049880;28;20036;-62
2022/01/02 06:51:43;;;;;;;10.20;4.65;;;;;;;9.77;92.65;101120.03;5045855;28;20047;-62
2022/01/02 06:54:08;;;;;;;11.57;4.72;;;;;;;9.77;93.09;101130.63;5050192;28;20029;-62
2022/01/02 06:56:33;;;;;;;12.48;4.32;;;;;;;9.76;91.89;101125.47;5050009;28;20484;-63
2022/01/02 06:58:59;;;;;;;10.27;4.40;;;;;;;9.78;92.33;101116.41;5048738;28;20118;-63
2022/01/02 07:01:24;;;;;;;12.07;3.92;;;;;;;9.81;91.68;101109.97;5040674;28;20049;-62
2022/01/02 07:03:49;;;;;;;8.55;4.15;;;;;;;9.82;91.61;101107.19;5042899;28;20036;-62
2022/01/02 07:06:14;;;;;;;9.55;4.10;;;;;;;9.82;91.83;101107.19;5046346;28;20041;-63
2022/01/02 07:08:40;;;;;;;6.35;3.63;;;;;;;9.85;91.24;101105.22;5037312;28;20034;-62
2022/01/02 07:11:07;;;;;;;10.60;4.10;;;;;;;9.87;91.41;101111.22;5046404;28;20545;-63
2022/01/02 07:13:32;;;;;;;8.70;3.97;;;;;;;9.89;90.44;101119.84;5041139;28;20029;-63
2022/01/02 07:15:58;;;;;;;10.63;4.15;;;;;;;9.92;90.76;101108.94;5045349;28;20048;-63
2022/01/02 07:18:23;;;;;;;9.25;3.90;;;;;;;9.94;90.35;101125.50;5039236;28;20087;-63
2022/01/02 07:20:48;;;;;;;6.60;3.80;;;;;;;9.96;89.56;101134.13;5039138;28;20029;-62
2022/01/02 07:23:13;;;;;;;7.72;3.90;;;;;;;9.99;90.22;101131.19;5039540;28;20033;-63
2022/01/02 07:25:39;;;;;;;8.32;3.63;;;;;;;9.99;89.67;101122.41;5034768;28;20087;-62
2022/01/02 07:28:04;;;;;;;9.00;3.70;;;;;;;9.99;90.41;101104.72;5035570;28;20021;-62
2022/01/02 07:30:29;;;;;;;10.90;3.70;;;;;;;9.99;90.66;101101.22;5037740;28;20025;-63
2022/01/02 07:33:01;;;;;;;5.93;3.60;;;;;;;9.96;89.86;101089.09;5034485;28;20037;-63
2022/01/02 07:35:26;;;;;;;9.53;3.70;;;;;;;9.94;89.34;101093.72;5030961;28;20038;-63
2022/01/02 07:37:52;;;;;;;7.15;3.70;;;;;;;9.93;90.27;101098.19;5035475;28;20770;-63
2022/01/02 07:40:17;;;;;;;9.77;3.80;;;;;;;9.94;89.31;101102.53;5031756;28;20061;-63
2022/01/02 07:42:43;;;;;;;9.85;3.95;;;;;;;9.97;89.03;101098.75;5037602;28;20029;-62
2022/01/02 07:45:08;;;;;;;6.75;3.45;;;;;;;9.98;88.99;101094.25;5033882;28;20038;-60
2022/01/02 07:47:33;;;;;;;8.05;4.00;;;;;;;10.00;87.80;101097.56;5039914;28;20057;-59
2022/01/02 07:49:59;;;;;;;6.22;3.58;;;;;;;10.03;87.74;101119.31;5037037;28;20033;-59
2022/01/02 07:52:24;;;;;;;9.27;3.92;;;;;;;10.04;88.39;101089.19;5042364;28;20036;-59
2022/01/02 07:54:49;;;;;;;8.40;3.60;;;;;;;10.04;89.58;101110.38;5036961;28;20473;-58
2022/01/02 07:57:14;;;;;;;7.07;3.90;;;;;;;10.03;89.04;101123.78;5039179;28;20155;-58
2022/01/02 07:59:40;;;;;;;8.50;3.72;;;;;;;10.01;88.88;101131.88;5035347;28;20041;-58
2022/01/02 08:02:05;;;;;;;8.45;3.90;;;;;;;10.01;88.89;101141.66;5040417;28;20131;-59
2022/01/02 08:04:30;;;;;;;8.40;3.67;;;;;;;10.01;88.56;101137.16;5038704;28;20037;-58
2022/01/02 08:06:55;;;;;;;10.73;3.67;;;;;;;10.02;88.70;101122.94;5038640;28;20416;-58
2022/01/02 08:09:21;;;;;;;8.75;4.20;;;;;;;9.99;88.75;101125.91;5036071;28;20029;-59
2022/01/02 08:11:46;;;;;;;7.93;3.90;;;;;;;9.98;88.74;101124.25;5041948;28;20029;-59
2022/01/02 08:14:12;;;;;;;9.00;3.50;;;;;;;10.07;87.60;101133.09;5040076;28;20162;-59
2022/01/02 08:16:37;;;;;;;10.68;4.15;;;;;;;10.08;88.77;101140.88;5036261;28;20068;-60
2022/01/02 08:19:05;;;;;;;7.72;4.03;;;;;;;10.05;88.54;101138.53;5037479;28;20611;-59
2022/01/02 08:21:31;;;;;;;12.90;4.15;;;;;;;10.08;88.27;101140.88;5040777;28;20032;-59
2022/01/02 08:23:56;;;;;;;7.00;3.65;;;;;;;10.06;88.01;101145.50;5039850;28;20037;-58
2022/01/02 08:26:21;;;;;;;7.70;3.88;;;;;;;10.06;87.53;101137.56;5042737;28;20028;-59
2022/01/02 08:28:46;;;;;;;9.40;4.05;;;;;;;10.06;88.32;101118.16;5043050;28;20033;-59
2022/01/02 08:31:12;;;;;;;8.40;4.00;;;;;;;10.03;88.51;101090.19;5040925;28;20029;-58
2022/01/02 08:33:37;;;;;;;7.88;3.78;;;;;;;10.12;86.72;101148.53;5043643;28;20048;-59
2022/01/02 08:36:04;;;;;;;5.88;3.80;;;;;;;10.12;87.11;101138.75;5043965;28;20527;-57
2022/01/02 08:38:30;;;;;;;5.80;3.80;;;;;;;10.14;86.03;101128.00;5043229;28;20029;-58
2022/01/02 08:40:55;;;;;;;6.95;3.70;;;;;;;10.27;84.33;101128.47;5046531;28;20264;-57
2022/01/02 08:43:20;;;;;;;7.90;3.60;;;;;;;10.27;84.65;101136.41;5041433;28;20045;-57
2022/01/02 08:45:46;;;;;;;7.70;3.60;;;;;;;10.29;84.58;101134.47;5045343;28;20055;-57
2022/01/02 08:48:11;;;;;;;7.13;3.70;;;;;;;10.28;84.53;101138.09;5045364;28;20037;-58
2022/01/02 08:50:36;;;;;;;6.78;3.90;;;;;;;10.38;83.84;101131.88;5044530;28;20029;-58
2022/01/02 08:53:02;;;;;;;7.80;3.60;;;;;;;10.56;81.67;101150.44;5033429;28;20053;-58
2022/01/02 08:55:27;;;;;;;9.77;3.92;;;;;;;10.48;82.28;101148.56;5042094;28;20482;-57
2022/01/02 08:57:52;;;;;;;6.15;3.72;;;;;;;10.57;82.04;101152.13;5040497;28;20037;-58
2022/01/02 09:00:17;;;;;;;7.80;4.00;;;;;;;10.58;82.00;101151.97;5040604;28;20473;-58
2022/01/02 09:02:43;;;;;;;10.18;4.03;;;;;;;10.63;81.17;101152.34;5043492;28;20033;-56
2022/01/02 09:05:08;;;;;;;8.55;4.07;;;;;;;10.62;81.21;101141.88;5045030;28;20033;-58
2022/01/02 09:07:35;;;;;;;9.98;4.50;;;;;;;10.72;79.95;101133.81;5037855;28;20107;-58
2022/01/02 09:10:00;;;;;;;6.50;4.00;;;;;;;10.74;79.87;101127.38;5041184;28;20065;-58
2022/01/02 09:12:25;;;;;;;8.20;4.20;;;;;;;10.81;79.64;101127.56;5045054;28;20071;-58
2022/01/02 09:14:51;;;;;;;10.55;4.43;;;;;;;10.81;80.00;101127.56;5040274;28;20884;-58
2022/01/02 09:17:16;;;;;;;9.65;4.50;;;;;;;10.80;80.25;101130.41;5036937;28;20341;-57
2022/01/02 09:19:41;;;;;;;9.50;4.95;;;;;;;10.92;80.33;101129.16;5043465;28;20397;-57
2022/01/02 09:22:06;;;;;;;8.73;4.80;;;;;;;10.95;79.68;101128.00;5044697;28;20039;-58
2022/01/02 09:24:32;;;;;;;8.13;4.55;;;;;;;10.91;80.27;101130.16;5039173;28;20396;-56
2022/01/02 09:26:57;;;;;;;7.20;4.75;;;;;;;10.98;80.16;101138.28;5039974;28;20029;-58
2022/01/02 09:29:23;;;;;;;11.50;5.28;;;;;;;10.96;81.16;101134.97;5040376;28;20036;-58
2022/01/02 09:31:48;;;;;;;11.20;4.90;;;;;;;11.10;80.28;101142.34;5039886;28;20108;-58
2022/01/02 09:34:14;;;;;;;9.70;4.70;;;;;;;11.20;79.68;101146.72;5038722;28;20034;-58
2022/01/02 09:36:39;;;;;;;13.13;5.10;;;;;;;11.21;79.57;101135.09;5047251;28;20073;-58
2022/01/02 09:39:05;;;;;;;10.35;5.13;;;;;;;11.29;79.71;101135.13;5040994;28;20044;-59
2022/01/02 09:41:31;;;;;;;8.80;4.85;;;;;;;11.38;79.45;101143.97;5043888;28;20024;-62
2022/01/02 09:43:56;;;;;;;8.55;5.20;;;;;;;11.40;79.29;101134.84;5045172;28;20393;-62
2022/01/02 09:46:24;;;;;;;11.80;5.38;;;;;;;11.35;79.00;101139.81;5044203;28;20032;-61
2022/01/02 09:48:50;;;;;;;9.98;5.30;;;;;;;11.36;78.84;101146.81;5044618;28;20091;-62
2022/01/02 09:51:18;;;;;;;13.05;5.30;;;;;;;11.38;78.63;101152.78;5042234;28;20041;-62
2022/01/02 09:53:46;;;;;;;13.32;5.10;;;;;;;11.43;78.40;101155.78;5042552;28;20025;-62
2022/01/02 09:56:13;;;;;;;10.00;5.03;;;;;;;11.35;78.99;101149.63;5039953;28;20033;-62
2022/01/02 09:58:42;;;;;;;15.32;5.45;;;;;;;11.42;78.53;101154.13;5037085;28;20025;-62
2022/01/02 10:01:12;;;;;;;13.88;5.43;;;;;;;11.42;78.06;101156.78;5043084;28;20029;-62
2022/01/02 10:03:43;;;;;;;14.50;5.93;;;;;;;11.43;79.01;101158.44;5041984;28;20083;-62
2022/01/02 10:06:08;;;;;;;12.98;5.50;;;;;;;11.47;78.22;101152.81;5042487;28;20036;-61
2022/01/02 10:08:35;;;;;;;8.68;5.25;;;;;;;11.61;77.63;101165.50;5038550;28;20475;-62
2022/01/02 10:11:19;;;;;;;10.65;5.15;;;;;;;11.59;78.47;101170.13;5042471;28;20029;-59
2022/01/02 10:14:02;;;;;;;10.75;5.30;;;;;;;11.76;77.66;101167.53;5044333;28;20056;-59
2022/01/02 10:16:36;;;;;;;10.73;5.20;;;;;;;11.65;78.15;101166.81;5034533;28;20064;-59
2022/01/02 10:19:20;;;;;;;11.70;4.85;;;;;;;11.67;77.89;101164.84;5044357;28;20550;-59
2022/01/02 10:22:12;;;;;;;8.50;4.85;;;;;;;11.60;78.74;101166.47;5043259;28;20028;-58
2022/01/02 10:24:42;;;;;;;11.02;4.82;;;;;;;11.52;78.85;101161.13;5038375;28;20047;-59
2022/01/02 10:27:16;;;;;;;12.90;5.10;;;;;;;11.58;77.35;101165.78;5042676;28;20048;-59
2022/01/02 10:29:57;;;;;;;13.30;5.20;;;;;;;11.62;78.35;101153.03;5038980;28;20029;-59
2022/01/02 10:32:32;;;;;;;9.63;5.13;;;;;;;11.68;77.48;101155.88;5038922;28;20117;-59
2022/01/02 10:35:23;;;;;;;12.43;5.13;;;;;;;11.79;77.04;101152.09;5043653;28;20033;-59
2022/01/02 10:37:53;;;;;;;11.32;5.00;;;;;;;11.60;78.69;101142.56;5039969;28;20026;-59
2022/01/02 10:40:38;;;;;;;11.05;4.90;;;;;;;11.60;79.18;101145.22;5040295;28;20032;-59
2022/01/02 10:43:09;;;;;;;10.18;4.90;;;;;;;11.52;79.71;101147.84;5041426;28;20040;-59
2022/01/02 10:45:44;;;;;;;11.93;5.20;;;;;;;11.60;79.01;101147.88;5041554;28;20105;-59
2022/01/02 10:48:12;;;;;;;13.10;4.90;;;;;;;11.63;78.50;101147.56;5044033;28;20110;-59
2022/01/02 10:50:39;;;;;;;13.07;4.95;;;;;;;11.66;78.45;101147.25;5037133;28;20487;-59
2022/01/02 10:53:31;;;;;;;10.88;5.05;;;;;;;11.64;79.01;101130.63;5048978;28;20032;-60
2022/01/02 10:55:57;;;;;;;10.15;4.65;;;;;;;11.60;79.25;101136.44;5040934;28;20776;-59
2022/01/02 10:58:25;;;;;;;12.15;4.85;;;;;;;11.70;78.24;101143.25;5040248;28;20063;-59
2022/01/02 11:00:51;;;;;;;10.93;4.70;;;;;;;11.65;78.40;101145.56;5042374;28;20021;-58
2022/01/02 11:03:22;;;;;;;10.02;4.07;;;;;;;11.69;78.78;101149.56;5043242;28;20060;-61
2022/01/02 11:05:49;;;;;;;12.63;4.82;;;;;;;11.78;77.60;101144.28;5043392;28;20032;-60
2022/01/02 11:08:15;;;;;;;11.23;4.88;;;;;;;11.68;78.65;101133.78;5035392;28;20040;-61
2022/01/02 11:10:41;;;;;;;14.60;4.88;;;;;;;11.66;79.75;101131.31;5041151;28;20452;-62
2022/01/02 11:13:07;;;;;;;10.57;4.68;;;;;;;11.82;78.28;101130.53;5042952;28;20116;-62
2022/01/02 11:15:33;;;;;;;11.95;4.40;;;;;;;11.70;78.91;101134.47;5042152;28;20025;-62
2022/01/02 11:17:58;;;;;;;12.57;4.32;;;;;;;11.77;78.24;101142.63;5043031;28;20021;-62
2022/01/02 11:20:29;;;;;;;13.00;4.63;;;;;;;11.89;78.29;101135.19;5043395;28;20029;-61
2022/01/02 11:23:14;;;;;;;13.73;4.47;;;;;;;11.91;77.78;101139.34;5044802;28;20036;-62
2022/01/02 11:25:42;;;;;;;11.63;4.60;;;;;;;12.08;77.10;101134.06;5041655;28;20542;-62
2022/01/02 11:28:31;;;;;;;12.27;4.72;;;;;;;12.31;76.57;101138.75;5050813;28;20037;-62
2022/01/02 11:30:57;;;;;;;14.13;4.60;;;;;;;12.08;77.12;101144.69;5045959;28;20037;-61